Time;durP1;ratioP1;P1;durP2;ratioP2;P2;SDS_P1;SDS_P2;PMS_P1;PMS_P2;Temp;Humidity;BMP_temperature;BMP_pressure;BME280_temperature;BME280_humidity;BME280_pressure;Samples;Min_cycle;Max_cycle;Signal;HPM_P1;HPM_P2
2022/09/21 00:03:24;;;;;;;2.88;0.63;;;;;;;;;;10353379;28;20080;-64
2022/09/21 00:08:27;;;;;;;3.42;0.80;;;;;;;;;;10350681;28;20164;-64
2022/09/21 00:13:29;;;;;;;2.08;0.70;;;;;;;;;;10345145;28;20093;-65
2022/09/21 00:18:31;;;;;;;1.27;0.80;;;;;;;;;;10363635;28;20056;-64
2022/09/21 00:23:34;;;;;;;2.90;0.88;;;;;;;;;;10355317;28;20120;-64
2022/09/21 00:28:37;;;;;;;7.97;1.60;;;;;;;;;;10346282;28;20060;-64
2022/09/21 00:33:40;;;;;;;3.97;1.10;;;;;;;;;;10348463;28;20511;-63
2022/09/21 00:38:42;;;;;;;3.47;1.10;;;;;;;;;;10347676;28;20156;-64
2022/09/21 00:43:46;;;;;;;4.55;1.40;;;;;;;;;;10348842;28;20053;-64
2022/09/21 00:48:48;;;;;;;4.18;1.65;;;;;;;;;;10352683;28;20056;-65
2022/09/21 00:53:53;;;;;;;6.75;1.35;;;;;;;;;;10354148;28;20665;-65
2022/09/21 00:58:55;;;;;;;3.00;1.80;;;;;;;;;;10340947;28;20078;-64
2022/09/21 01:03:57;;;;;;;3.75;1.55;;;;;;;;;;10341313;28;20050;-63
2022/09/21 01:09:00;;;;;;;2.80;1.88;;;;;;;;;;10349790;28;20140;-65
2022/09/21 01:14:17;;;;;;;6.15;2.22;;;;;;;;;;10359462;28;20137;-65
2022/09/21 01:19:19;;;;;;;6.80;2.35;;;;;;;;;;10343918;28;20052;-64
2022/09/21 01:24:21;;;;;;;5.38;1.60;;;;;;;;;;10351634;28;20045;-64
2022/09/21 01:29:34;;;;;;;4.32;2.45;;;;;;;;;;10349359;28;20105;-65
2022/09/21 01:34:49;;;;;;;4.18;1.75;;;;;;;;;;10347144;28;20703;-63
2022/09/21 01:39:55;;;;;;;6.38;1.45;;;;;;;;;;10354373;28;20080;-63
2022/09/21 01:44:58;;;;;;;3.88;2.13;;;;;;;;;;10341791;28;20127;-61
2022/09/21 01:50:02;;;;;;;5.82;2.00;;;;;;;;;;10345044;28;20069;-64
2022/09/21 01:55:07;;;;;;;3.38;1.52;;;;;;;;;;10366009;28;20042;-63
2022/09/21 02:00:12;;;;;;;2.90;1.63;;;;;;;;;;10356489;28;20046;-65
2022/09/21 02:05:15;;;;;;;5.93;2.35;;;;;;;;;;10330096;28;20450;-65
2022/09/21 02:10:23;;;;;;;3.50;1.88;;;;;;;;;;10362999;28;20053;-65
2022/09/21 02:15:28;;;;;;;2.50;1.50;;;;;;;;;;10358534;28;20136;-63
2022/09/21 02:20:31;;;;;;;3.28;1.50;;;;;;;;;;10357856;28;20042;-64
2022/09/21 02:25:51;;;;;;;2.53;1.58;;;;;;;;;;10356722;28;20050;-63
2022/09/21 02:30:58;;;;;;;4.70;1.52;;;;;;;;;;10351224;28;20080;-64
2022/09/21 02:36:19;;;;;;;2.13;1.40;;;;;;;;;;10342543;28;20515;-64
2022/09/21 02:41:27;;;;;;;2.92;1.55;;;;;;;;;;10347713;28;20082;-65
2022/09/21 02:46:35;;;;;;;2.75;1.85;;;;;;;;;;10349134;28;20131;-65
2022/09/21 02:51:46;;;;;;;3.50;1.55;;;;;;;;;;10342740;28;20068;-64
2022/09/21 02:56:50;;;;;;;3.80;1.65;;;;;;;;;;10347474;28;20089;-65
2022/09/21 03:01:52;;;;;;;4.32;1.65;;;;;;;;;;10359660;28;20100;-65
2022/09/21 03:06:55;;;;;;;3.17;1.60;;;;;;;;;;10361456;28;20103;-65
2022/09/21 03:11:57;;;;;;;4.20;1.98;;;;;;;;;;10350642;28;20081;-63
2022/09/21 03:17:00;;;;;;;4.20;1.52;;;;;;;;;;10354931;28;20057;-65
2022/09/21 03:22:03;;;;;;;3.60;1.70;;;;;;;;;;10352714;28;20068;-65
2022/09/21 03:27:05;;;;;;;3.40;1.95;;;;;;;;;;10354706;28;20057;-65
2022/09/21 03:32:07;;;;;;;4.20;1.67;;;;;;;;;;10356427;28;20141;-65
2022/09/21 03:37:09;;;;;;;36.25;2.45;;;;;;;;;;10351380;28;20472;-65
2022/09/21 03:42:12;;;;;;;4.13;1.63;;;;;;;;;;10359223;28;20053;-65
2022/09/21 03:47:15;;;;;;;7.45;1.65;;;;;;;;;;10348248;28;20420;-65
2022/09/21 03:52:17;;;;;;;30.83;2.25;;;;;;;;;;10353288;28;20137;-65
2022/09/21 03:57:19;;;;;;;53.45;2.38;;;;;;;;;;10349835;28;20117;-65
2022/09/21 04:02:21;;;;;;;61.83;3.70;;;;;;;;;;10346855;28;20527;-64
2022/09/21 04:07:23;;;;;;;62.50;3.45;;;;;;;;;;10352274;28;20057;-64
2022/09/21 04:12:25;;;;;;;114.13;3.78;;;;;;;;;;10350011;28;20058;-64
2022/09/21 04:17:28;;;;;;;17.73;1.80;;;;;;;;;;10349999;28;20072;-63
2022/09/21 04:22:30;;;;;;;35.72;1.80;;;;;;;;;;10357173;28;20134;-63
2022/09/21 04:27:32;;;;;;;2.75;1.33;;;;;;;;;;10343683;28;20121;-64
2022/09/21 04:32:34;;;;;;;3.92;1.25;;;;;;;;;;10381263;28;20128;-65
2022/09/21 04:37:37;;;;;;;63.15;3.30;;;;;;;;;;10389010;28;20243;-65
2022/09/21 04:42:39;;;;;;;59.85;3.47;;;;;;;;;;10395439;28;20136;-65
2022/09/21 04:47:41;;;;;;;15.15;1.15;;;;;;;;;;10392001;28;20136;-62
2022/09/21 04:52:43;;;;;;;7.60;1.10;;;;;;;;;;10385901;28;20131;-64
2022/09/21 04:57:46;;;;;;;7.57;1.35;;;;;;;;;;10385492;28;20159;-65
2022/09/21 05:02:48;;;;;;;6.78;2.97;;;;;;;;;;10385493;28;20049;-64
2022/09/21 05:07:50;;;;;;;17.75;3.63;;;;;;;;;;10386402;28;20153;-64
2022/09/21 05:12:52;;;;;;;13.65;2.00;;;;;;;;;;10392143;28;20172;-70
2022/09/21 05:17:54;;;;;;;4.80;1.17;;;;;;;;;;10373788;28;20147;-69
2022/09/21 05:23:00;;;;;;;5.70;1.42;;;;;;;;;;10383026;28;20480;-69
2022/09/21 05:28:02;;;;;;;44.65;3.25;;;;;;;;;;10385788;28;20690;-69
2022/09/21 05:33:06;;;;;;;19.98;1.88;;;;;;;;;;10395310;28;20498;-70
2022/09/21 05:38:12;;;;;;;4.65;1.98;;;;;;;;;;10387115;28;20480;-70
2022/09/21 05:43:14;;;;;;;25.35;2.30;;;;;;;;;;10369270;28;20518;-70
2022/09/21 05:48:18;;;;;;;8.07;2.25;;;;;;;;;;10373379;28;20042;-68
2022/09/21 05:53:20;;;;;;;48.50;1.83;;;;;;;;;;10372926;28;20045;-70
2022/09/21 05:58:41;;;;;;;12.00;1.33;;;;;;;;;;10392336;28;20052;-69
2022/09/21 06:03:43;;;;;;;23.45;1.50;;;;;;;;;;10394706;28;20084;-68
2022/09/21 06:08:46;;;;;;;6.28;0.90;;;;;;;;;;10392333;28;20049;-69
2022/09/21 06:13:48;;;;;;;4.25;1.30;;;;;;;;;;10395770;28;20092;-69
2022/09/21 06:18:50;;;;;;;15.30;1.42;;;;;;;;;;10388878;28;20115;-69
2022/09/21 06:23:52;;;;;;;5.90;1.20;;;;;;;;;;10395727;28;20060;-70
2022/09/21 06:28:54;;;;;;;3.42;1.25;;;;;;;;;;10387360;28;20046;-71
2022/09/21 06:33:56;;;;;;;3.17;1.30;;;;;;;;;;10390703;28;20053;-71
2022/09/21 06:38:59;;;;;;;2.17;1.30;;;;;;;;;;10375205;28;20621;-71
2022/09/21 06:44:01;;;;;;;2.97;1.40;;;;;;;;;;10387968;28;20140;-70
2022/09/21 06:49:03;;;;;;;2.58;0.80;;;;;;;;;;10390051;28;20460;-70
2022/09/21 06:54:05;;;;;;;2.00;0.98;;;;;;;;;;10390557;28;20544;-69
2022/09/21 06:59:09;;;;;;;3.22;1.27;;;;;;;;;;10385971;28;20045;-69
2022/09/21 07:04:12;;;;;;;2.45;0.93;;;;;;;;;;10389576;28;20053;-69
2022/09/21 07:09:14;;;;;;;3.00;1.27;;;;;;;;;;10384202;28;20587;-69
2022/09/21 07:14:36;;;;;;;3.10;1.33;;;;;;;;;;10385932;28;20060;-71
2022/09/21 07:19:38;;;;;;;3.22;1.10;;;;;;;;;;10389359;28;20054;-71
2022/09/21 07:24:40;;;;;;;1.92;1.10;;;;;;;;;;10379220;28;20137;-71
2022/09/21 07:29:42;;;;;;;4.47;1.08;;;;;;;;;;10367030;28;20065;-70
2022/09/21 07:34:45;;;;;;;2.45;0.93;;;;;;;;;;10392924;28;20049;-71
2022/09/21 07:39:47;;;;;;;3.05;1.13;;;;;;;;;;10389448;28;20084;-70
2022/09/21 07:44:53;;;;;;;2.30;0.95;;;;;;;;;;10363533;28;20073;-70
2022/09/21 07:50:05;;;;;;;3.58;1.20;;;;;;;;;;10388627;28;20057;-70
2022/09/21 07:55:07;;;;;;;3.05;0.80;;;;;;;;;;10392241;28;20512;-70
2022/09/21 08:00:09;;;;;;;1.70;1.10;;;;;;;;;;10382246;28;20056;-69
2022/09/21 08:05:11;;;;;;;6.82;1.08;;;;;;;;;;10385750;28;20480;-70
2022/09/21 08:10:13;;;;;;;1.45;0.80;;;;;;;;;;10402835;28;20055;-71
2022/09/21 08:15:16;;;;;;;3.60;1.05;;;;;;;;;;10390868;28;20064;-70
2022/09/21 08:20:38;;;;;;;2.70;0.77;;;;;;;;;;10392250;28;20044;-71
2022/09/21 08:25:41;;;;;;;2.78;0.57;;;;;;;;;;10358015;28;20076;-69
2022/09/21 08:30:43;;;;;;;3.05;1.00;;;;;;;;;;10389432;28;20042;-70
2022/09/21 08:35:55;;;;;;;2.53;0.88;;;;;;;;;;10388261;28;20137;-71
2022/09/21 08:40:57;;;;;;;6.18;0.85;;;;;;;;;;10351012;28;20714;-71
2022/09/21 08:46:00;;;;;;;4.03;0.90;;;;;;;;;;10372780;28;20125;-70
2022/09/21 08:51:04;;;;;;;4.38;0.73;;;;;;;;;;10362979;28;21085;-71
2022/09/21 08:56:10;;;;;;;5.95;0.70;;;;;;;;;;10366841;28;20054;-70
2022/09/21 09:01:31;;;;;;;2.78;0.77;;;;;;;;;;10378565;28;20045;-71
2022/09/21 09:06:41;;;;;;;1.98;0.55;;;;;;;;;;10373001;28;20779;-73
2022/09/21 09:11:56;;;;;;;3.05;0.82;;;;;;;;;;10392931;28;20060;-70
2022/09/21 09:17:19;;;;;;;4.72;1.20;;;;;;;;;;10386731;28;20460;-68
2022/09/21 09:22:41;;;;;;;4.93;0.52;;;;;;;;;;10365500;28;20125;-69
2022/09/21 09:27:46;;;;;;;3.35;0.75;;;;;;;;;;10385280;28;20058;-71
2022/09/21 09:33:17;;;;;;;1.38;0.50;;;;;;;;;;10388048;28;20096;-72
2022/09/21 09:38:19;;;;;;;1.38;0.47;;;;;;;;;;10316349;28;20128;-71
2022/09/21 09:43:24;;;;;;;3.10;0.50;;;;;;;;;;10370719;28;20049;-70
2022/09/21 09:48:31;;;;;;;1.42;0.30;;;;;;;;;;10392615;28;20128;-71
2022/09/21 09:53:34;;;;;;;;;;;;;;;;;;10375641;28;20140;-72
2022/09/21 09:58:41;;;;;;;0.85;0.32;;;;;;;;;;10404417;28;19964;-71
2022/09/21 10:03:43;;;;;;;3.92;0.30;;;;;;;;;;10377541;28;20050;-71
2022/09/21 10:08:46;;;;;;;1.63;0.47;;;;;;;;;;10381927;28;20041;-71
2022/09/21 10:13:48;;;;;;;2.13;0.40;;;;;;;;;;10374074;28;20166;-68
2022/09/21 10:18:55;;;;;;;2.70;0.30;;;;;;;;;;10373690;28;20088;-70
2022/09/21 10:23:58;;;;;;;3.13;0.30;;;;;;;;;;10387007;28;20041;-69
2022/09/21 10:29:16;;;;;;;2.15;0.25;;;;;;;;;;10397007;28;20284;-70
2022/09/21 10:34:19;;;;;;;2.38;0.20;;;;;;;;;;10395479;28;20056;-71
2022/09/21 10:39:22;;;;;;;2.13;0.28;;;;;;;;;;10402303;28;20663;-70
2022/09/21 10:44:32;;;;;;;0.68;0.20;;;;;;;;;;10375530;28;20076;-70
2022/09/21 10:49:35;;;;;;;2.17;0.20;;;;;;;;;;10398310;28;20107;-71
2022/09/21 10:54:39;;;;;;;2.30;0.13;;;;;;;;;;10385894;28;20148;-71
2022/09/21 10:59:41;;;;;;;3.60;0.30;;;;;;;;;;10371199;28;20132;-71
2022/09/21 11:04:48;;;;;;;1.75;0.30;;;;;;;;;;10356310;28;20132;-71
2022/09/21 11:09:54;;;;;;;3.80;0.25;;;;;;;;;;10394119;28;20137;-69
2022/09/21 11:15:02;;;;;;;2.40;0.30;;;;;;;;;;10387610;28;20565;-69
2022/09/21 11:20:26;;;;;;;1.80;0.20;;;;;;;;;;10393493;28;20507;-71
2022/09/21 11:25:31;;;;;;;1.30;0.30;;;;;;;;;;10376079;28;20151;-66
2022/09/21 11:30:47;;;;;;;1.00;0.28;;;;;;;;;;10380047;28;20558;-71
2022/09/21 11:36:22;;;;;;;1.03;0.30;;;;;;;;;;10366656;28;20488;-71
2022/09/21 11:41:36;;;;;;;0.40;0.20;;;;;;;;;;10341879;28;20917;-70
2022/09/21 11:46:42;;;;;;;1.17;0.30;;;;;;;;;;10394688;28;20129;-72
2022/09/21 11:51:47;;;;;;;1.25;0.30;;;;;;;;;;10393565;28;20136;-71
2022/09/21 11:56:54;;;;;;;2.05;0.25;;;;;;;;;;10392176;28;20038;-69
2022/09/21 12:01:56;;;;;;;;;;;;;;;;;;10380268;28;20125;-67
2022/09/21 12:07:13;;;;;;;0.60;0.30;;;;;;;;;;10385919;28;20399;-68
2022/09/21 12:12:22;;;;;;;1.75;0.03;;;;;;;;;;10386579;28;20053;-68
2022/09/21 12:17:44;;;;;;;1.05;0.08;;;;;;;;;;10398003;28;20646;-68
2022/09/21 12:22:48;;;;;;;0.47;0.10;;;;;;;;;;10394178;28;20041;-68
2022/09/21 12:28:00;;;;;;;0.20;0.10;;;;;;;;;;10381470;28;20064;-67
2022/09/21 12:33:09;;;;;;;1.80;0.10;;;;;;;;;;10384544;28;20049;-69
2022/09/21 12:38:34;;;;;;;4.03;0.10;;;;;;;;;;10390122;28;20052;-69
2022/09/21 12:43:42;;;;;;;0.20;0.00;;;;;;;;;;10394511;28;20077;-70
2022/09/21 12:48:45;;;;;;;0.10;0.00;;;;;;;;;;10382634;28;20092;-67
2022/09/21 12:53:48;;;;;;;1.95;0.20;;;;;;;;;;10368157;28;20128;-67
2022/09/21 12:59:13;;;;;;;0.68;0.00;;;;;;;;;;10360896;28;20041;-69
2022/09/21 13:04:24;;;;;;;1.05;0.10;;;;;;;;;;10361897;28;20221;-68
2022/09/21 13:09:27;;;;;;;0.00;0.00;;;;;;;;;;10372860;28;20124;-68
2022/09/21 13:14:33;;;;;;;0.50;0.00;;;;;;;;;;10383679;28;20454;-68
2022/09/21 13:19:35;;;;;;;0.45;0.10;;;;;;;;;;10386992;28;20831;-68
2022/09/21 13:24:38;;;;;;;3.13;0.10;;;;;;;;;;10390891;28;20119;-67
2022/09/21 13:29:41;;;;;;;1.10;0.00;;;;;;;;;;10375448;28;20390;-69
2022/09/21 13:34:45;;;;;;;0.52;0.10;;;;;;;;;;10380577;28;20081;-67
2022/09/21 13:39:47;;;;;;;1.20;0.03;;;;;;;;;;10372827;28;20610;-68
2022/09/21 13:44:49;;;;;;;1.63;0.10;;;;;;;;;;10393549;28;20136;-67
2022/09/21 13:49:52;;;;;;;0.00;0.00;;;;;;;;;;10381518;28;20484;-66
2022/09/21 13:55:05;;;;;;;0.08;0.00;;;;;;;;;;10386662;28;20553;-68
2022/09/21 14:00:07;;;;;;;;;;;;;;;;;;10393494;28;20100;-69
2022/09/21 14:05:28;;;;;;;1.75;0.08;;;;;;;;;;10397938;28;20003;-68
2022/09/21 14:10:32;;;;;;;0.30;0.10;;;;;;;;;;10390772;28;20501;-67
2022/09/21 14:15:36;;;;;;;0.95;0.00;;;;;;;;;;10395705;28;20136;-67
2022/09/21 14:20:38;;;;;;;0.35;0.10;;;;;;;;;;10389111;28;20053;-68
2022/09/21 14:25:55;;;;;;;3.40;0.05;;;;;;;;;;10382878;28;20135;-67
2022/09/21 14:30:59;;;;;;;0.00;0.00;;;;;;;;;;10398006;28;20114;-66
2022/09/21 14:36:07;;;;;;;0.80;0.10;;;;;;;;;;10387654;28;20049;-68
2022/09/21 14:41:19;;;;;;;0.10;0.00;;;;;;;;;;10392874;28;20518;-67
2022/09/21 14:46:28;;;;;;;2.28;0.10;;;;;;;;;;10388704;28;20069;-67
2022/09/21 14:51:41;;;;;;;0.10;0.00;;;;;;;;;;10373654;28;20061;-68
2022/09/21 14:57:07;;;;;;;0.00;0.00;;;;;;;;;;10402408;28;20136;-67
2022/09/21 15:02:20;;;;;;;0.10;0.00;;;;;;;;;;10387455;28;20089;-68
2022/09/21 15:12:57;;;;;;;1.30;0.10;;;;;;;;;;10384399;28;20594;-67
2022/09/21 15:18:00;;;;;;;0.20;0.10;;;;;;;;;;10395074;28;20470;-71
2022/09/21 15:23:15;;;;;;;0.10;0.05;;;;;;;;;;10394639;28;20096;-67
2022/09/21 15:28:17;;;;;;;2.30;0.10;;;;;;;;;;10393949;28;20055;-69
2022/09/21 15:33:19;;;;;;;0.00;0.00;;;;;;;;;;10394309;28;20057;-71
2022/09/21 15:38:35;;;;;;;0.10;0.10;;;;;;;;;;10388848;28;21562;-70
2022/09/21 15:43:39;;;;;;;0.43;0.10;;;;;;;;;;10367571;28;20071;-70
2022/09/21 15:48:45;;;;;;;2.45;0.30;;;;;;;;;;10349260;28;20567;-71
2022/09/21 15:53:49;;;;;;;1.27;0.10;;;;;;;;;;10389630;28;20081;-71
2022/09/21 15:58:52;;;;;;;1.60;0.10;;;;;;;;;;10383854;28;20069;-73
2022/09/21 16:04:07;;;;;;;0.50;0.08;;;;;;;;;;10369661;28;20056;-71
2022/09/21 16:09:33;;;;;;;2.05;0.00;;;;;;;;;;10387401;28;20060;-72
2022/09/21 16:14:55;;;;;;;0.35;0.10;;;;;;;;;;10392452;28;20076;-71
2022/09/21 16:20:09;;;;;;;1.35;0.10;;;;;;;;;;10376071;28;20113;-69
2022/09/21 16:25:20;;;;;;;1.08;0.20;;;;;;;;;;10356745;28;20064;-72
2022/09/21 16:30:43;;;;;;;1.33;0.10;;;;;;;;;;10396583;28;20535;-71
2022/09/21 16:35:45;;;;;;;2.00;0.10;;;;;;;;;;10393058;28;20076;-69
2022/09/21 16:40:50;;;;;;;2.25;0.20;;;;;;;;;;10389090;28;20120;-68
2022/09/21 16:45:52;;;;;;;2.53;0.35;;;;;;;;;;10389707;28;20139;-69
2022/09/21 16:50:54;;;;;;;2.28;0.22;;;;;;;;;;10389490;28;20133;-70
2022/09/21 16:55:57;;;;;;;1.20;0.10;;;;;;;;;;10377094;28;20053;-70
2022/09/21 17:00:59;;;;;;;2.35;0.10;;;;;;;;;;10367494;28;20061;-67
2022/09/21 17:06:02;;;;;;;1.25;0.10;;;;;;;;;;10355229;28;20124;-71
2022/09/21 17:11:05;;;;;;;0.10;0.03;;;;;;;;;;10380078;28;20480;-70
2022/09/21 17:16:08;;;;;;;2.05;0.20;;;;;;;;;;10398411;28;20075;-70
2022/09/21 17:21:10;;;;;;;2.35;0.20;;;;;;;;;;10393375;28;20111;-69
2022/09/21 17:26:18;;;;;;;0.10;0.10;;;;;;;;;;10377965;28;20096;-69
2022/09/21 17:31:22;;;;;;;;;;;;;;;;;;10387386;28;20055;-69
2022/09/21 17:36:24;;;;;;;1.48;0.57;;;;;;;;;;10378377;28;19932;-69
2022/09/21 17:41:31;;;;;;;0.82;0.30;;;;;;;;;;10384905;28;20131;-70
2022/09/21 17:46:42;;;;;;;3.97;0.73;;;;;;;;;;10362510;28;20128;-70
2022/09/21 17:57:08;;;;;;;4.90;1.10;;;;;;;;;;10380703;28;20084;-64
2022/09/21 18:02:30;;;;;;;4.68;1.23;;;;;;;;;;10392587;28;20515;-60
2022/09/21 18:07:33;;;;;;;9.27;1.70;;;;;;;;;;10375457;28;20048;-61
2022/09/21 18:12:45;;;;;;;12.10;2.17;;;;;;;;;;10400762;28;20048;-61
2022/09/21 18:18:02;;;;;;;6.53;2.13;;;;;;;;;;10413091;28;20124;-62
2022/09/21 18:23:10;;;;;;;14.57;4.90;;;;;;;;;;10383526;28;20434;-61
2022/09/21 18:28:32;;;;;;;14.60;4.85;;;;;;;;;;10373687;28;20057;-61
2022/09/21 18:33:37;;;;;;;2.85;0.82;;;;;;;;;;10351543;28;20052;-61
2022/09/21 18:38:42;;;;;;;1.55;0.70;;;;;;;;;;10394712;28;20188;-61
2022/09/21 18:43:50;;;;;;;1.90;0.47;;;;;;;;;;10387001;28;20053;-62
2022/09/21 18:49:22;;;;;;;5.57;1.00;;;;;;;;;;10387181;28;20091;-62
2022/09/21 18:54:26;;;;;;;5.18;0.80;;;;;;;;;;10357297;28;20073;-62
2022/09/21 18:59:28;;;;;;;1.25;0.38;;;;;;;;;;10372011;28;20569;-61
2022/09/21 19:04:33;;;;;;;5.50;1.75;;;;;;;;;;10396817;28;20064;-62
2022/09/21 19:09:51;;;;;;;4.20;1.45;;;;;;;;;;10392024;28;20123;-62
2022/09/21 19:14:59;;;;;;;9.90;1.92;;;;;;;;;;10394969;28;20563;-62
2022/09/21 19:20:01;;;;;;;4.13;1.63;;;;;;;;;;10397496;28;20136;-63
2022/09/21 19:25:33;;;;;;;6.78;1.95;;;;;;;;;;10357008;28;20049;-60
2022/09/21 19:30:35;;;;;;;8.55;1.88;;;;;;;;;;10360036;28;20050;-61
2022/09/21 19:35:37;;;;;;;4.72;1.38;;;;;;;;;;10386086;28;20045;-62
2022/09/21 19:40:40;;;;;;;6.15;1.25;;;;;;;;;;10395528;28;20124;-61
2022/09/21 19:45:51;;;;;;;5.88;1.80;;;;;;;;;;10394125;28;20064;-61
2022/09/21 19:50:56;;;;;;;3.35;1.20;;;;;;;;;;10369585;28;20935;-62
2022/09/21 20:01:20;;;;;;;3.05;0.98;;;;;;;;;;10400530;28;20112;-61
2022/09/21 20:06:30;;;;;;;2.17;0.73;;;;;;;;;;10381495;28;20575;-61
2022/09/21 20:11:38;;;;;;;6.43;2.33;;;;;;;;;;10396090;28;20047;-61
2022/09/21 20:16:44;;;;;;;3.85;1.58;;;;;;;;;;10386709;28;20077;-61
2022/09/21 20:21:48;;;;;;;5.60;1.87;;;;;;;;;;10364431;28;20041;-61
2022/09/21 20:26:51;;;;;;;6.90;2.50;;;;;;;;;;10350835;28;20570;-61
2022/09/21 20:31:53;;;;;;;2.83;1.13;;;;;;;;;;10355994;28;20050;-62
2022/09/21 20:36:55;;;;;;;8.25;1.85;;;;;;;;;;10392115;28;20135;-62
2022/09/21 20:41:58;;;;;;;8.05;2.13;;;;;;;;;;10374069;28;20059;-62
2022/09/21 20:47:01;;;;;;;5.03;1.45;;;;;;;;;;10386046;28;20682;-61
2022/09/21 20:52:03;;;;;;;2.63;0.85;;;;;;;;;;10378573;28;20206;-65
2022/09/21 20:57:05;;;;;;;2.33;0.90;;;;;;;;;;10383885;28;20133;-62
2022/09/21 21:02:09;;;;;;;3.33;1.20;;;;;;;;;;10399734;28;20127;-62
2022/09/21 21:07:11;;;;;;;5.20;1.05;;;;;;;;;;10390503;28;20129;-62
2022/09/21 21:12:13;;;;;;;4.65;1.58;;;;;;;;;;10384435;28;20042;-62
2022/09/21 21:17:15;;;;;;;9.05;2.33;;;;;;;;;;10388658;28;21367;-62
2022/09/21 21:22:17;;;;;;;8.38;3.63;;;;;;;;;;10379604;28;20045;-61
2022/09/21 21:27:21;;;;;;;10.15;2.85;;;;;;;;;;10384226;28;20469;-60
2022/09/21 21:32:24;;;;;;;7.97;2.58;;;;;;;;;;10389070;28;20160;-61
2022/09/21 21:37:26;;;;;;;5.75;1.50;;;;;;;;;;10389958;28;20053;-61
2022/09/21 21:42:28;;;;;;;9.25;1.98;;;;;;;;;;10388990;28;20392;-61
2022/09/21 21:47:30;;;;;;;5.00;1.33;;;;;;;;;;10388871;28;20127;-61
2022/09/21 21:52:43;;;;;;;4.28;1.20;;;;;;;;;;10380479;28;20045;-62
2022/09/21 21:57:46;;;;;;;4.30;1.02;;;;;;;;;;10383713;28;20115;-62
2022/09/21 22:02:48;;;;;;;2.20;0.80;;;;;;;;;;10370054;28;20057;-62
2022/09/21 22:07:50;;;;;;;4.60;1.17;;;;;;;;;;10367627;28;20140;-62
2022/09/21 22:12:55;;;;;;;1.70;0.70;;;;;;;;;;10375084;28;20545;-61
2022/09/21 22:17:58;;;;;;;3.70;1.10;;;;;;;;;;10387395;28;20489;-61
2022/09/21 22:23:01;;;;;;;7.53;1.00;;;;;;;;;;10372659;28;20069;-62
2022/09/21 22:28:03;;;;;;;1.67;0.70;;;;;;;;;;10387995;28;20067;-61
2022/09/21 22:33:05;;;;;;;2.28;0.90;;;;;;;;;;10392783;28;20049;-61
2022/09/21 22:38:10;;;;;;;2.97;0.50;;;;;;;;;;10385237;28;20049;-61
2022/09/21 22:43:12;;;;;;;2.15;0.40;;;;;;;;;;10384289;28;20080;-61
2022/09/21 22:48:14;;;;;;;3.85;0.85;;;;;;;;;;10380630;28;20699;-61
2022/09/21 22:53:17;;;;;;;1.70;0.63;;;;;;;;;;10392654;28;20480;-61
2022/09/21 22:58:19;;;;;;;1.70;0.50;;;;;;;;;;10389644;28;20107;-61
2022/09/21 23:03:21;;;;;;;4.75;1.23;;;;;;;;;;10394332;28;20067;-61
2022/09/21 23:08:23;;;;;;;4.47;1.50;;;;;;;;;;10383324;28;20491;-61
2022/09/21 23:13:25;;;;;;;6.43;0.80;;;;;;;;;;10393549;28;20128;-61
2022/09/21 23:18:27;;;;;;;1.00;0.47;;;;;;;;;;10404241;28;20557;-61
2022/09/21 23:23:30;;;;;;;1.00;0.38;;;;;;;;;;10393665;28;20064;-61
2022/09/21 23:28:33;;;;;;;0.73;0.35;;;;;;;;;;10398937;28;20125;-62
2022/09/21 23:33:42;;;;;;;1.00;0.30;;;;;;;;;;10395827;28;20050;-61
2022/09/21 23:38:45;;;;;;;1.35;0.50;;;;;;;;;;10400182;28;20144;-61
2022/09/21 23:43:47;;;;;;;0.95;0.40;;;;;;;;;;10375811;28;20047;-61
2022/09/21 23:48:49;;;;;;;3.00;1.00;;;;;;;;;;10396196;28;20046;-61
2022/09/21 23:53:52;;;;;;;6.30;0.50;;;;;;;;;;10394525;28;20065;-59
2022/09/21 23:58:54;;;;;;;3.72;0.40;;;;;;;;;;10390503;28;20052;-60
